Waterloo, Alabama
Current Conditions -  °F | °C
As of 2:55 PM on Friday 31 Oct 2014 (Local Time) from KSNH Reporting Station
Overcast Overcast  
Wind Chill: 52°   Ceiling: 3000
Heat Index: 52°   Visibility: 10mi
Dew Point: 41°   Wind: 16mph
Humidity: 67%   Direction: 360°N
Pressure: 30.07"   Gusts: NA
Location:  34.92°N, 88.06°W
Report Text: KSNH 311955Z AUTO 36014KT 10SM BKN030 OVC036 11/05 A3007 RMK
Loading
Personal Weather Stations






























Interactive Weather Map
Tropical Storm Tracking
New forecast layout! Learn more

10-Day Weather Forecast

Advertisements
Track Severe Weather on mobile